createdAt,value
2018-03-21T00:02:19.071Z,-0.51
2018-03-21T00:04:47.337Z,-0.60
2018-03-21T00:07:15.604Z,-0.67
2018-03-21T00:09:43.893Z,-0.61
2018-03-21T00:12:12.172Z,-0.84
2018-03-21T00:14:40.445Z,-0.85
2018-03-21T00:17:08.725Z,-0.92
2018-03-21T00:19:37.003Z,-1.01
2018-03-21T00:22:05.257Z,-0.97
2018-03-21T00:24:33.529Z,-0.99
2018-03-21T00:27:01.794Z,-1.04
2018-03-21T00:29:30.049Z,-0.99
2018-03-21T00:31:59.096Z,-0.91
2018-03-21T00:34:27.371Z,-0.85
2018-03-21T00:36:55.663Z,-0.66
2018-03-21T00:39:23.996Z,-0.56
2018-03-21T00:41:52.275Z,-1.02
2018-03-21T00:44:20.557Z,-1.14
2018-03-21T00:46:48.824Z,-1.19
2018-03-21T00:49:17.148Z,-1.27
2018-03-21T00:51:45.408Z,-1.20
2018-03-21T00:54:13.676Z,-1.12
2018-03-21T00:56:41.988Z,-0.97
2018-03-21T00:59:10.276Z,-0.95
2018-03-21T01:01:38.543Z,-0.88
2018-03-21T01:04:06.852Z,-0.92
2018-03-21T01:06:35.182Z,-0.95
2018-03-21T01:09:03.452Z,-0.98
2018-03-21T01:11:31.732Z,-0.95
2018-03-21T01:14:00.012Z,-0.80
2018-03-21T01:16:28.275Z,-0.70
2018-03-21T01:18:56.563Z,-0.60
2018-03-21T01:21:24.853Z,-0.56
2018-03-21T01:23:53.132Z,-0.54
2018-03-21T01:26:21.423Z,-0.65
2018-03-21T01:28:50.457Z,-0.73
2018-03-21T01:31:18.724Z,-0.81
2018-03-21T01:33:47.023Z,-0.87
2018-03-21T01:36:15.294Z,-1.02
2018-03-21T01:38:43.585Z,-1.13
2018-03-21T01:41:12.985Z,-1.28
2018-03-21T01:43:41.276Z,-1.25
2018-03-21T01:46:09.566Z,-1.31
2018-03-21T01:48:37.828Z,-1.32
2018-03-21T01:51:06.108Z,-1.43
2018-03-21T01:53:34.376Z,-1.52
2018-03-21T01:56:02.656Z,-1.57
2018-03-21T01:58:30.931Z,-1.73
2018-03-21T02:00:59.204Z,-1.91
2018-03-21T02:03:27.471Z,-1.98
2018-03-21T02:05:55.728Z,-2.15
2018-03-21T02:08:24.000Z,-2.00
2018-03-21T02:10:52.285Z,-1.95
2018-03-21T02:13:20.560Z,-1.90
2018-03-21T02:15:48.829Z,-2.00
2018-03-21T02:18:17.097Z,-2.14
2018-03-21T02:20:45.352Z,-2.17
2018-03-21T02:23:14.379Z,-2.31
2018-03-21T02:25:42.752Z,-2.45
2018-03-21T02:28:11.028Z,-2.48
2018-03-21T02:30:39.335Z,-2.26
2018-03-21T02:33:07.588Z,-2.11
2018-03-21T02:35:35.845Z,-2.14
2018-03-21T02:38:04.131Z,-2.15
2018-03-21T02:40:32.424Z,-2.10
2018-03-21T02:43:00.689Z,-2.15
2018-03-21T02:45:28.976Z,-2.25
2018-03-21T02:47:57.256Z,-2.32
2018-03-21T02:50:25.530Z,-2.38
2018-03-21T02:52:53.813Z,-2.62
2018-03-21T02:55:22.081Z,-2.73
2018-03-21T02:57:50.364Z,-2.64
2018-03-21T03:00:18.623Z,-2.59
2018-03-21T03:02:46.899Z,-2.70
2018-03-21T03:05:15.158Z,-2.92
2018-03-21T03:07:43.432Z,-2.92
2018-03-21T03:10:11.711Z,-3.16
2018-03-21T03:12:40.112Z,-3.18
2018-03-21T03:15:08.462Z,-3.37
2018-03-21T03:17:36.735Z,-3.57
2018-03-21T03:20:05.012Z,-3.48
2018-03-21T03:22:33.287Z,-3.28
2018-03-21T03:25:01.580Z,-3.14
2018-03-21T03:27:29.956Z,-3.08
2018-03-21T03:29:58.244Z,-3.23
2018-03-21T03:32:26.500Z,-3.20
2018-03-21T03:34:54.772Z,-3.12
2018-03-21T03:37:23.059Z,-3.28
2018-03-21T03:39:51.323Z,-3.12
2018-03-21T03:42:19.584Z,-3.17
2018-03-21T03:44:48.636Z,-3.24
2018-03-21T03:47:16.915Z,-3.16
2018-03-21T03:49:45.183Z,-3.08
2018-03-21T03:52:13.483Z,-3.18
2018-03-21T03:54:42.520Z,-3.41
2018-03-21T03:57:10.812Z,-3.34
2018-03-21T03:59:39.085Z,-3.19
2018-03-21T04:02:07.343Z,-3.22
2018-03-21T04:04:35.680Z,-3.26
2018-03-21T04:07:03.951Z,-3.23
2018-03-21T04:09:32.207Z,-3.40
2018-03-21T04:12:00.499Z,-3.36
2018-03-21T04:14:28.854Z,-3.38
2018-03-21T04:16:57.137Z,-3.40
2018-03-21T04:19:25.403Z,-3.50
2018-03-21T04:21:53.689Z,-3.58
2018-03-21T04:24:21.960Z,-3.59
2018-03-21T04:26:50.223Z,-3.65
2018-03-21T04:29:18.664Z,-3.56
2018-03-21T04:31:46.933Z,-3.60
2018-03-21T04:34:15.214Z,-3.56
2018-03-21T04:36:43.474Z,-3.61
2018-03-21T04:39:11.736Z,-3.79
2018-03-21T04:41:40.029Z,-3.97
2018-03-21T04:44:08.294Z,-4.08
2018-03-21T04:46:36.564Z,-4.26
2018-03-21T04:49:04.839Z,-4.27
2018-03-21T04:51:33.113Z,-4.13
2018-03-21T04:54:01.385Z,-4.09
2018-03-21T04:56:29.651Z,-3.99
2018-03-21T04:58:57.913Z,-4.00
2018-03-21T05:01:26.232Z,-3.98
2018-03-21T05:03:54.509Z,-3.96
2018-03-21T05:06:22.798Z,-3.94
2018-03-21T05:08:51.080Z,-4.07
2018-03-21T05:11:20.943Z,-4.45
2018-03-21T05:13:49.231Z,-4.46
2018-03-21T05:16:17.518Z,-4.26
2018-03-21T05:18:45.840Z,-4.16
2018-03-21T05:21:14.875Z,-4.12
2018-03-21T05:23:43.131Z,-4.15
2018-03-21T05:26:11.406Z,-4.32
2018-03-21T05:28:39.692Z,-4.40
2018-03-21T05:31:07.972Z,-4.57
2018-03-21T05:33:36.244Z,-4.51
2018-03-21T05:36:04.499Z,-4.70
2018-03-21T05:38:32.924Z,-4.59
2018-03-21T05:41:01.211Z,-4.83
2018-03-21T05:43:29.481Z,-4.65
2018-03-21T05:45:57.754Z,-4.70
2018-03-21T05:48:26.082Z,-4.67
2018-03-21T05:50:54.360Z,-4.69
2018-03-21T05:53:22.668Z,-4.61
2018-03-21T05:55:51.791Z,-4.43
2018-03-21T05:58:20.068Z,-4.31
2018-03-21T06:00:48.332Z,-4.18
2018-03-21T06:03:16.597Z,-4.09
2018-03-21T06:05:44.887Z,-3.86
2018-03-21T06:08:13.189Z,-3.66
2018-03-21T06:10:42.228Z,-3.55
2018-03-21T06:13:10.545Z,-3.47
2018-03-21T06:15:38.800Z,-3.35
2018-03-21T06:18:07.132Z,-3.25
2018-03-21T06:20:36.117Z,-3.25
2018-03-21T06:23:05.161Z,-3.24
2018-03-21T06:25:33.472Z,-3.23
2018-03-21T06:28:01.728Z,-3.14
2018-03-21T06:30:30.001Z,-3.13
2018-03-21T06:32:58.283Z,-2.94
2018-03-21T06:35:26.536Z,-2.77
2018-03-21T06:37:54.800Z,-2.58
2018-03-21T06:40:23.084Z,-2.41
2018-03-21T06:42:51.357Z,-2.28
2018-03-21T06:45:19.623Z,-2.30
2018-03-21T06:47:47.932Z,-2.09
2018-03-21T06:50:16.215Z,-1.92
2018-03-21T06:52:44.472Z,-1.74
2018-03-21T06:55:12.804Z,-1.66
2018-03-21T06:57:41.101Z,-1.50
2018-03-21T07:00:09.360Z,-1.48
2018-03-21T07:02:38.405Z,-1.28
2018-03-21T07:05:06.672Z,-1.10
2018-03-21T07:07:34.952Z,-0.95
2018-03-21T07:10:03.219Z,-0.95
2018-03-21T07:12:31.487Z,-0.81
2018-03-21T07:15:17.528Z,-0.69
2018-03-21T07:17:45.796Z,-0.65
2018-03-21T07:20:14.071Z,-0.46
2018-03-21T07:22:42.344Z,-0.38
2018-03-21T07:25:10.612Z,-0.26
2018-03-21T07:27:38.868Z,-0.27
2018-03-21T07:30:07.148Z,-0.06
2018-03-21T07:32:35.397Z,0.08
2018-03-21T07:35:03.643Z,0.12
2018-03-21T07:37:32.688Z,0.24
2018-03-21T07:40:00.940Z,0.32
2018-03-21T07:42:29.189Z,0.42
2018-03-21T07:44:57.465Z,0.49
2018-03-21T07:47:26.489Z,0.40
2018-03-21T07:49:54.738Z,0.53
2018-03-21T07:52:23.830Z,0.75
2018-03-21T07:54:52.856Z,0.94
2018-03-21T07:57:21.097Z,1.16
2018-03-21T07:59:50.131Z,1.30
2018-03-21T08:02:18.437Z,1.41
2018-03-21T08:04:46.654Z,1.20
2018-03-21T08:07:15.696Z,1.20
2018-03-21T08:09:43.968Z,1.19
2018-03-21T08:12:12.239Z,1.41
2018-03-21T08:14:40.502Z,1.59
2018-03-21T08:17:08.747Z,1.77
2018-03-21T08:19:37.779Z,1.95
2018-03-21T08:22:06.052Z,2.15
2018-03-21T08:24:34.305Z,2.26
2018-03-21T08:27:02.585Z,2.40
2018-03-21T08:29:31.595Z,2.57
2018-03-21T08:31:59.859Z,2.61
2018-03-21T08:34:28.162Z,2.80
2018-03-21T08:36:56.390Z,2.86
2018-03-21T08:39:25.435Z,2.95
2018-03-21T08:41:53.696Z,3.08
2018-03-21T08:44:21.975Z,3.13
2018-03-21T08:46:50.240Z,3.33
2018-03-21T08:49:18.486Z,3.48
2018-03-21T08:51:47.527Z,3.63
2018-03-21T08:54:15.806Z,3.71
2018-03-21T08:56:44.060Z,3.50
2018-03-21T08:59:12.343Z,3.68
2018-03-21T09:01:40.616Z,3.77
2018-03-21T09:04:08.869Z,3.91
2018-03-21T09:06:37.910Z,4.10
2018-03-21T09:09:06.161Z,4.28
2018-03-21T09:11:34.416Z,4.50
2018-03-21T09:14:02.700Z,4.76
2018-03-21T09:16:30.952Z,4.94
2018-03-21T09:18:59.991Z,5.15
2018-03-21T09:21:28.251Z,5.19
2018-03-21T09:23:56.701Z,5.23
2018-03-21T09:26:24.945Z,5.41
2018-03-21T09:28:53.238Z,5.57
2018-03-21T09:31:22.276Z,5.73
2018-03-21T09:33:50.523Z,6.00
2018-03-21T09:36:19.560Z,6.05
2018-03-21T09:38:47.824Z,5.62
2018-03-21T09:41:16.084Z,5.77
2018-03-21T09:43:45.171Z,5.94
2018-03-21T09:46:14.189Z,6.00
2018-03-21T09:48:42.452Z,6.14
2018-03-21T09:51:10.720Z,6.47
2018-03-21T09:53:39.748Z,6.64
2018-03-21T09:56:08.010Z,6.66
2018-03-21T09:58:36.285Z,6.81
2018-03-21T10:01:04.608Z,6.87
2018-03-21T10:03:32.806Z,7.12
2018-03-21T10:06:01.868Z,7.36
2018-03-21T10:08:30.120Z,7.24
2018-03-21T10:10:58.382Z,6.81
2018-03-21T10:13:26.656Z,6.68
2018-03-21T10:15:54.903Z,6.48
2018-03-21T10:18:23.948Z,7.06
2018-03-21T10:20:52.192Z,7.45
2018-03-21T10:23:20.467Z,7.39
2018-03-21T10:25:49.503Z,7.43
2018-03-21T10:28:17.760Z,7.66
2018-03-21T10:30:46.020Z,7.70
2018-03-21T10:33:14.347Z,7.75
2018-03-21T10:35:42.600Z,7.20
2018-03-21T10:38:10.886Z,6.29
2018-03-21T10:40:39.141Z,6.59
2018-03-21T10:43:07.401Z,6.86
2018-03-21T10:45:35.712Z,7.21
2018-03-21T10:48:03.967Z,7.59
2018-03-21T10:50:32.236Z,6.80
2018-03-21T10:53:00.520Z,6.86
2018-03-21T10:55:28.779Z,7.44
2018-03-21T10:57:57.053Z,7.30
2018-03-21T11:00:26.085Z,7.85
2018-03-21T11:02:59.812Z,7.85
2018-03-21T11:05:28.104Z,6.84
2018-03-21T11:07:57.121Z,7.68
2018-03-21T11:10:25.375Z,7.55
2018-03-21T11:12:54.425Z,7.67
2018-03-21T11:15:22.673Z,8.16
2018-03-21T11:17:50.998Z,8.43
2018-03-21T11:20:20.104Z,8.69
2018-03-21T11:22:49.242Z,8.87
2018-03-21T11:25:17.672Z,8.44
2018-03-21T11:27:45.988Z,8.71
2018-03-21T11:30:14.334Z,7.51
2018-03-21T11:32:43.474Z,7.63
2018-03-21T11:35:11.820Z,7.26
2018-03-21T11:37:41.014Z,8.03
2018-03-21T11:40:09.320Z,8.60
2018-03-21T11:42:37.616Z,8.82
2018-03-21T11:45:05.901Z,7.61
2018-03-21T11:47:34.168Z,8.01
2018-03-21T11:50:02.432Z,8.16
2018-03-21T11:52:30.695Z,9.09
2018-03-21T11:54:58.962Z,9.32
2018-03-21T11:57:27.980Z,9.71
2018-03-21T11:59:56.226Z,9.68
2018-03-21T12:02:25.266Z,10.23
2018-03-21T12:04:53.516Z,9.11
2018-03-21T12:07:21.783Z,9.23
2018-03-21T12:09:50.040Z,9.89
2018-03-21T12:12:18.311Z,10.39
2018-03-21T12:14:46.609Z,9.54
2018-03-21T12:17:15.724Z,9.63
2018-03-21T12:19:44.001Z,9.79
2018-03-21T12:22:12.257Z,10.16
2018-03-21T12:24:41.295Z,10.62
2018-03-21T12:27:09.568Z,11.30
2018-03-21T12:29:37.845Z,10.81
2018-03-21T12:32:06.121Z,9.72
2018-03-21T12:34:34.395Z,10.61
2018-03-21T12:37:02.652Z,10.40
2018-03-21T12:39:30.942Z,9.91
2018-03-21T12:41:59.204Z,10.02
2018-03-21T12:44:27.529Z,9.77
2018-03-21T12:46:55.749Z,9.94
2018-03-21T12:49:24.001Z,10.23
2018-03-21T12:51:53.028Z,10.96
2018-03-21T12:54:21.300Z,10.35
2018-03-21T12:56:49.564Z,11.56
2018-03-21T12:59:17.821Z,12.59
2018-03-21T13:01:46.863Z,13.04
2018-03-21T13:04:15.120Z,12.89
2018-03-21T13:06:43.406Z,11.27
2018-03-21T13:09:11.716Z,12.26
2018-03-21T13:11:39.983Z,13.02
2018-03-21T13:14:08.255Z,13.66
2018-03-21T13:16:36.606Z,13.42
2018-03-21T13:19:04.870Z,13.02
2018-03-21T13:21:33.141Z,13.08
2018-03-21T13:24:01.432Z,13.62
2018-03-21T13:26:29.724Z,13.70
2018-03-21T13:28:57.992Z,14.34
2018-03-21T13:31:26.248Z,15.14
2018-03-21T13:33:54.529Z,14.89
2018-03-21T13:36:22.844Z,15.28
2018-03-21T13:38:51.115Z,15.69
2018-03-21T13:41:19.400Z,15.73
2018-03-21T13:43:47.659Z,16.26
2018-03-21T13:46:15.928Z,16.73
2018-03-21T13:48:44.200Z,16.27
2018-03-21T13:51:12.462Z,15.86
2018-03-21T13:53:40.722Z,14.05
2018-03-21T13:56:09.752Z,14.65
2018-03-21T13:58:38.008Z,14.32
2018-03-21T14:01:06.278Z,14.88
2018-03-21T14:03:34.571Z,15.14
2018-03-21T14:06:02.832Z,15.48
2018-03-21T14:08:31.140Z,16.13
2018-03-21T14:10:59.421Z,16.22
2018-03-21T14:13:27.703Z,16.16
2018-03-21T14:15:55.957Z,16.53
2018-03-21T14:18:24.232Z,17.51
2018-03-21T14:20:52.744Z,17.68
2018-03-21T14:23:21.163Z,18.16
2018-03-21T14:25:50.199Z,16.46
2018-03-21T14:28:18.456Z,15.31
2018-03-21T14:30:46.830Z,15.80
2018-03-21T14:33:15.112Z,15.49
2018-03-21T14:35:43.393Z,14.72
2018-03-21T14:38:11.656Z,15.13
2018-03-21T14:40:39.920Z,13.75
2018-03-21T14:43:08.968Z,13.92
2018-03-21T14:45:37.221Z,14.74
2018-03-21T14:48:05.486Z,15.30
2018-03-21T14:50:33.768Z,14.89
2018-03-21T14:53:02.029Z,14.17
2018-03-21T14:55:30.305Z,11.57
2018-03-21T14:57:58.570Z,10.90
2018-03-21T15:00:27.590Z,10.06
2018-03-21T15:02:55.895Z,9.17
2018-03-21T15:05:24.165Z,9.49
2018-03-21T15:07:52.431Z,9.52
2018-03-21T15:10:20.671Z,9.92
2018-03-21T15:12:48.958Z,10.01
2018-03-21T15:15:17.200Z,10.49
2018-03-21T15:17:46.223Z,10.89
2018-03-21T15:20:14.499Z,10.01
2018-03-21T15:22:42.772Z,10.17
2018-03-21T15:25:11.030Z,10.84
2018-03-21T15:27:40.072Z,11.75
2018-03-21T15:30:08.333Z,12.66
2018-03-21T15:32:36.606Z,12.02
2018-03-21T15:35:04.884Z,12.38
2018-03-21T15:37:33.156Z,11.05
2018-03-21T15:40:01.426Z,11.90
2018-03-21T15:42:29.736Z,12.43
2018-03-21T15:44:58.035Z,9.58
2018-03-21T15:47:26.284Z,9.76
2018-03-21T15:49:54.543Z,9.56
2018-03-21T15:52:22.797Z,9.82
2018-03-21T15:54:51.146Z,10.82
2018-03-21T15:57:19.423Z,11.24
2018-03-21T15:59:47.680Z,11.68
2018-03-21T16:02:16.021Z,12.20
2018-03-21T16:04:44.298Z,11.23
2018-03-21T16:07:12.603Z,9.83
2018-03-21T16:09:40.936Z,9.43
2018-03-21T16:12:09.407Z,10.09
2018-03-21T16:14:38.424Z,9.16
2018-03-21T16:17:06.679Z,8.98
2018-03-21T16:19:35.741Z,9.25
2018-03-21T16:22:04.008Z,8.56
2018-03-21T16:24:32.272Z,9.44
2018-03-21T16:27:00.552Z,10.20
2018-03-21T16:29:28.819Z,10.62
2018-03-21T16:31:57.182Z,10.79
2018-03-21T16:34:25.475Z,9.89
2018-03-21T16:36:53.725Z,10.29
2018-03-21T16:39:22.044Z,9.66
2018-03-21T16:41:50.310Z,9.61
2018-03-21T16:44:18.581Z,9.03
2018-03-21T16:46:46.836Z,7.95
2018-03-21T16:49:15.118Z,8.06
2018-03-21T16:51:43.413Z,7.69
2018-03-21T16:54:11.705Z,7.31
2018-03-21T16:56:40.131Z,6.85
2018-03-21T16:59:08.512Z,6.94
2018-03-21T17:01:36.790Z,6.14
2018-03-21T17:04:05.179Z,6.37
2018-03-21T17:06:33.499Z,6.58
2018-03-21T17:09:01.882Z,6.13
2018-03-21T17:11:30.405Z,6.56
2018-03-21T17:13:58.796Z,6.77
2018-03-21T17:16:27.097Z,6.59
2018-03-21T17:18:55.385Z,6.42
2018-03-21T17:21:23.929Z,6.06
2018-03-21T17:23:52.299Z,5.47
2018-03-21T17:26:20.593Z,4.92
2018-03-21T17:28:49.270Z,4.90
2018-03-21T17:31:18.203Z,5.00
2018-03-21T17:33:47.257Z,4.98
2018-03-21T17:36:16.602Z,5.14
2018-03-21T17:38:44.926Z,5.33
2018-03-21T17:41:13.274Z,5.23
2018-03-21T17:43:42.350Z,5.32
2018-03-21T17:46:10.834Z,5.40
2018-03-21T17:48:40.504Z,5.47
2018-03-21T17:51:09.566Z,5.43
2018-03-21T17:53:38.892Z,5.31
2018-03-21T17:56:08.851Z,5.49
2018-03-21T17:58:38.978Z,5.52
2018-03-21T18:01:08.723Z,5.54
2018-03-21T18:03:38.456Z,5.61
2018-03-21T18:06:09.332Z,5.50
2018-03-21T18:08:42.929Z,5.61
2018-03-21T18:11:12.860Z,5.52
2018-03-21T18:13:42.649Z,5.28
2018-03-21T18:16:12.842Z,5.47
2018-03-21T18:18:42.775Z,5.57
2018-03-21T18:21:13.165Z,5.65
2018-03-21T18:23:43.908Z,5.61
2018-03-21T18:26:13.818Z,5.64
2018-03-21T18:28:44.666Z,5.22
2018-03-21T18:31:15.560Z,4.96
2018-03-21T18:33:45.435Z,4.97
2018-03-21T18:36:16.274Z,4.94
2018-03-21T18:38:46.086Z,5.13
2018-03-21T18:41:16.002Z,5.16
2018-03-21T18:43:45.930Z,4.76
2018-03-21T18:46:16.121Z,4.76
2018-03-21T18:48:45.972Z,4.83
2018-03-21T18:51:15.782Z,4.82
2018-03-21T18:53:45.588Z,4.97
2018-03-21T18:56:15.697Z,5.00
2018-03-21T18:58:45.708Z,5.01
2018-03-21T19:01:15.464Z,4.97
2018-03-21T19:03:45.714Z,4.59
2018-03-21T19:06:15.908Z,4.51
2018-03-21T19:08:45.192Z,4.70
2018-03-21T19:11:14.565Z,4.87
2018-03-21T19:13:44.018Z,4.39
2018-03-21T19:16:13.468Z,4.57
2018-03-21T19:18:43.808Z,4.64
2018-03-21T19:21:13.279Z,4.60
2018-03-21T19:23:44.131Z,4.66
2018-03-21T19:26:13.797Z,4.73
2018-03-21T19:28:44.045Z,4.75
2018-03-21T19:31:14.145Z,4.72
2018-03-21T19:33:44.318Z,4.72
2018-03-21T19:36:14.072Z,4.72
2018-03-21T19:38:45.533Z,4.71
2018-03-21T19:41:16.224Z,4.67
2018-03-21T19:43:46.221Z,4.55
2018-03-21T19:46:16.374Z,4.06
2018-03-21T19:48:46.352Z,3.34
2018-03-21T19:51:16.440Z,3.36
2018-03-21T19:53:47.215Z,3.42
2018-03-21T19:56:17.330Z,3.09
2018-03-21T19:58:47.616Z,3.27
2018-03-21T20:01:18.463Z,3.36
2018-03-21T20:03:48.384Z,3.41
2018-03-21T20:06:18.432Z,3.50
2018-03-21T20:08:48.430Z,3.50
2018-03-21T20:11:18.327Z,3.58
2018-03-21T20:13:48.227Z,3.70
2018-03-21T20:16:19.057Z,3.74
2018-03-21T20:18:49.828Z,3.66
2018-03-21T20:21:19.491Z,3.59
2018-03-21T20:23:49.715Z,3.55
2018-03-21T20:26:20.211Z,2.96
2018-03-21T20:28:49.579Z,3.10
2018-03-21T20:31:20.175Z,3.17
2018-03-21T20:33:51.777Z,3.05
2018-03-21T20:36:21.696Z,3.22
2018-03-21T20:38:51.703Z,3.22
2018-03-21T20:41:21.794Z,3.30
2018-03-21T20:43:52.654Z,3.39
2018-03-21T20:46:22.535Z,3.31
2018-03-21T20:48:53.890Z,3.39
2018-03-21T20:51:24.150Z,3.45
2018-03-21T20:53:54.191Z,3.44
2018-03-21T20:56:24.829Z,3.39
2018-03-21T20:58:54.852Z,3.35
2018-03-21T21:01:24.690Z,3.25
2018-03-21T21:03:55.546Z,2.93
2018-03-21T21:06:25.446Z,3.07
2018-03-21T21:08:56.340Z,3.16
2018-03-21T21:11:26.208Z,3.23
2018-03-21T21:13:56.104Z,3.28
2018-03-21T21:16:26.776Z,3.36
2018-03-21T21:18:57.463Z,3.37
2018-03-21T21:21:27.550Z,3.39
2018-03-21T21:23:58.012Z,3.37
2018-03-21T21:26:28.692Z,3.29
2018-03-21T21:28:58.995Z,3.27
2018-03-21T21:31:29.636Z,3.01
2018-03-21T21:33:59.677Z,3.08
2018-03-21T21:36:29.490Z,3.07
2018-03-21T21:38:59.552Z,3.11
2018-03-21T21:41:30.080Z,3.14
2018-03-21T21:43:59.894Z,3.08
2018-03-21T21:46:30.590Z,3.15
2018-03-21T21:49:00.580Z,3.15
2018-03-21T21:51:29.972Z,2.96
2018-03-21T21:54:00.064Z,2.75
2018-03-21T21:56:30.681Z,2.76
2018-03-21T21:59:00.552Z,2.51
2018-03-21T22:01:31.862Z,2.62
2018-03-21T22:04:02.714Z,2.64
2018-03-21T22:06:32.219Z,2.63
2018-03-21T22:09:03.010Z,2.41
2018-03-21T22:11:32.784Z,1.83
2018-03-21T22:14:02.121Z,1.68
2018-03-21T22:16:31.555Z,1.91
2018-03-21T22:18:59.920Z,1.87
2018-03-21T22:21:28.339Z,1.61
2018-03-21T22:23:56.616Z,1.60
2018-03-21T22:26:24.873Z,1.78
2018-03-21T22:28:53.164Z,1.82
2018-03-21T22:31:21.408Z,1.73
2018-03-21T22:33:49.663Z,1.80
2018-03-21T22:36:18.702Z,1.91
2018-03-21T22:38:46.971Z,1.76
2018-03-21T22:41:15.212Z,1.53
2018-03-21T22:43:44.251Z,1.20
2018-03-21T22:46:12.499Z,1.48
2018-03-21T22:48:40.759Z,1.67
2018-03-21T22:51:09.791Z,1.63
2018-03-21T22:53:38.051Z,1.64
2018-03-21T22:56:06.304Z,1.71
2018-03-21T22:58:35.348Z,1.83
2018-03-21T23:01:03.661Z,1.75
2018-03-21T23:03:31.924Z,1.73
2018-03-21T23:06:00.236Z,1.88
2018-03-21T23:08:29.257Z,1.92
2018-03-21T23:10:57.511Z,2.00
2018-03-21T23:13:25.800Z,1.97
2018-03-21T23:15:54.072Z,2.06
2018-03-21T23:18:23.088Z,2.08
2018-03-21T23:20:51.354Z,2.06
2018-03-21T23:23:19.611Z,2.07
2018-03-21T23:25:47.940Z,1.93
2018-03-21T23:28:16.277Z,1.89
2018-03-21T23:30:44.540Z,1.96
2018-03-21T23:33:12.791Z,2.06
2018-03-21T23:35:41.816Z,2.06
2018-03-21T23:38:10.097Z,2.09
2018-03-21T23:40:38.369Z,1.98
2018-03-21T23:43:06.653Z,2.11
2018-03-21T23:45:34.973Z,2.14
2018-03-21T23:48:03.256Z,2.14
2018-03-21T23:50:32.294Z,2.04
2018-03-21T23:53:00.589Z,2.08
2018-03-21T23:55:28.850Z,1.96
2018-03-21T23:57:57.138Z,1.91
